sensor_id;sensor_type;location;lat;lon;timestamp;pressure;altitude;pressure_sealevel;temperature;humidity
18900;BME280;9582;52.018;6.306;2022-08-20T00:00:08;101365.78;;;22.30;85.42
18900;BME280;9582;52.018;6.306;2022-08-20T00:02:38;101366.84;;;22.18;85.63
18900;BME280;9582;52.018;6.306;2022-08-20T00:05:05;101365.06;;;22.07;85.88
18900;BME280;9582;52.018;6.306;2022-08-20T00:07:32;101369.09;;;22.02;86.50
18900;BME280;9582;52.018;6.306;2022-08-20T00:09:58;101371.38;;;22.06;86.11
18900;BME280;9582;52.018;6.306;2022-08-20T00:12:26;101362.47;;;22.17;85.72
18900;BME280;9582;52.018;6.306;2022-08-20T00:14:53;101362.28;;;22.09;85.61
18900;BME280;9582;52.018;6.306;2022-08-20T00:17:20;101361.09;;;22.02;85.68
18900;BME280;9582;52.018;6.306;2022-08-20T00:19:46;101370.59;;;21.95;85.83
18900;BME280;9582;52.018;6.306;2022-08-20T00:22:13;101375.47;;;21.90;86.34
18900;BME280;9582;52.018;6.306;2022-08-20T00:24:39;101381.75;;;21.77;86.74
18900;BME280;9582;52.018;6.306;2022-08-20T00:27:06;101382.97;;;21.73;87.10
18900;BME280;9582;52.018;6.306;2022-08-20T00:29:33;101388.19;;;21.75;87.91
18900;BME280;9582;52.018;6.306;2022-08-20T00:32:00;101372.66;;;21.91;87.18
18900;BME280;9582;52.018;6.306;2022-08-20T00:34:27;101383.47;;;21.78;87.63
18900;BME280;9582;52.018;6.306;2022-08-20T00:36:53;101371.09;;;21.89;88.09
18900;BME280;9582;52.018;6.306;2022-08-20T00:39:20;101373.09;;;21.96;87.56
18900;BME280;9582;52.018;6.306;2022-08-20T00:41:46;101373.34;;;22.04;86.92
18900;BME280;9582;52.018;6.306;2022-08-20T00:44:15;101368.44;;;21.89;86.91
18900;BME280;9582;52.018;6.306;2022-08-20T00:46:45;101369.69;;;22.05;86.55
18900;BME280;9582;52.018;6.306;2022-08-20T00:49:14;101377.03;;;21.81;86.45
18900;BME280;9582;52.018;6.306;2022-08-20T00:51:44;101378.53;;;22.06;86.59
18900;BME280;9582;52.018;6.306;2022-08-20T00:54:14;101389.19;;;21.63;87.51
18900;BME280;9582;52.018;6.306;2022-08-20T00:56:42;101391.13;;;21.61;87.88
18900;BME280;9582;52.018;6.306;2022-08-20T00:59:14;101384.81;;;21.73;88.60
18900;BME280;9582;52.018;6.306;2022-08-20T01:01:44;101392.22;;;21.58;89.47
18900;BME280;9582;52.018;6.306;2022-08-20T01:04:11;101389.44;;;21.60;89.04
18900;BME280;9582;52.018;6.306;2022-08-20T01:06:37;101385.72;;;21.40;88.89
18900;BME280;9582;52.018;6.306;2022-08-20T01:09:05;101388.31;;;21.62;89.34
18900;BME280;9582;52.018;6.306;2022-08-20T01:11:33;101394.63;;;21.61;89.05
18900;BME280;9582;52.018;6.306;2022-08-20T01:14:01;101385.97;;;21.80;88.56
18900;BME280;9582;52.018;6.306;2022-08-20T01:16:39;101390.03;;;21.63;89.37
18900;BME280;9582;52.018;6.306;2022-08-20T01:19:08;101391.72;;;21.64;89.52
18900;BME280;9582;52.018;6.306;2022-08-20T01:21:37;101396.56;;;21.59;89.84
18900;BME280;9582;52.018;6.306;2022-08-20T01:24:07;101395.25;;;21.54;89.11
18900;BME280;9582;52.018;6.306;2022-08-20T01:26:42;101394.91;;;21.47;89.73
18900;BME280;9582;52.018;6.306;2022-08-20T01:29:14;101390.09;;;21.41;89.68
18900;BME280;9582;52.018;6.306;2022-08-20T01:31:41;101392.72;;;21.52;88.96
18900;BME280;9582;52.018;6.306;2022-08-20T01:34:12;101388.38;;;21.40;89.40
18900;BME280;9582;52.018;6.306;2022-08-20T01:36:41;101399.75;;;21.31;90.34
18900;BME280;9582;52.018;6.306;2022-08-20T01:39:13;101393.97;;;21.37;89.95
18900;BME280;9582;52.018;6.306;2022-08-20T01:41:48;101399.63;;;21.44;89.94
18900;BME280;9582;52.018;6.306;2022-08-20T01:44:18;101391.06;;;21.29;90.46
18900;BME280;9582;52.018;6.306;2022-08-20T01:46:48;101399.56;;;21.12;90.78
18900;BME280;9582;52.018;6.306;2022-08-20T01:49:18;101397.25;;;21.29;90.66
18900;BME280;9582;52.018;6.306;2022-08-20T01:51:45;101400.75;;;21.30;90.37
18900;BME280;9582;52.018;6.306;2022-08-20T01:54:13;101393.50;;;21.32;90.33
18900;BME280;9582;52.018;6.306;2022-08-20T01:56:54;101405.34;;;21.28;90.64
18900;BME280;9582;52.018;6.306;2022-08-20T01:59:20;101402.19;;;21.23;91.06
18900;BME280;9582;52.018;6.306;2022-08-20T02:01:47;101400.00;;;21.06;92.67
18900;BME280;9582;52.018;6.306;2022-08-20T02:04:15;101399.19;;;21.05;92.94
18900;BME280;9582;52.018;6.306;2022-08-20T02:06:47;101407.78;;;21.09;92.21
18900;BME280;9582;52.018;6.306;2022-08-20T02:09:13;101406.31;;;21.05;92.28
18900;BME280;9582;52.018;6.306;2022-08-20T02:11:40;101408.00;;;21.17;92.52
18900;BME280;9582;52.018;6.306;2022-08-20T02:14:09;101405.09;;;21.09;92.58
18900;BME280;9582;52.018;6.306;2022-08-20T02:16:38;101400.78;;;21.08;92.41
18900;BME280;9582;52.018;6.306;2022-08-20T02:19:09;101406.44;;;21.14;92.13
18900;BME280;9582;52.018;6.306;2022-08-20T02:21:39;101410.63;;;21.06;91.57
18900;BME280;9582;52.018;6.306;2022-08-20T02:24:06;101411.38;;;20.97;92.77
18900;BME280;9582;52.018;6.306;2022-08-20T02:26:33;101408.47;;;20.89;94.08
18900;BME280;9582;52.018;6.306;2022-08-20T02:29:05;101404.97;;;20.77;93.26
18900;BME280;9582;52.018;6.306;2022-08-20T02:31:35;101399.16;;;20.83;94.12
18900;BME280;9582;52.018;6.306;2022-08-20T02:34:02;101399.50;;;20.67;95.12
18900;BME280;9582;52.018;6.306;2022-08-20T02:36:29;101400.94;;;20.60;95.05
18900;BME280;9582;52.018;6.306;2022-08-20T02:38:56;101405.25;;;20.39;95.88
18900;BME280;9582;52.018;6.306;2022-08-20T02:41:23;101398.41;;;20.24;95.87
18900;BME280;9582;52.018;6.306;2022-08-20T02:43:49;101406.38;;;20.24;95.48
18900;BME280;9582;52.018;6.306;2022-08-20T02:46:16;101405.16;;;20.17;95.22
18900;BME280;9582;52.018;6.306;2022-08-20T02:48:45;101404.19;;;20.18;95.71
18900;BME280;9582;52.018;6.306;2022-08-20T02:51:11;101407.91;;;20.28;95.51
18900;BME280;9582;52.018;6.306;2022-08-20T02:53:39;101401.63;;;20.29;94.06
18900;BME280;9582;52.018;6.306;2022-08-20T02:56:07;101412.13;;;20.31;93.44
18900;BME280;9582;52.018;6.306;2022-08-20T02:58:34;101405.66;;;20.57;92.71
18900;BME280;9582;52.018;6.306;2022-08-20T03:01:02;101407.78;;;20.41;92.34
18900;BME280;9582;52.018;6.306;2022-08-20T03:03:30;101407.47;;;20.56;92.27
18900;BME280;9582;52.018;6.306;2022-08-20T03:05:58;101413.41;;;20.60;91.22
18900;BME280;9582;52.018;6.306;2022-08-20T03:08:26;101408.91;;;20.49;91.34
18900;BME280;9582;52.018;6.306;2022-08-20T03:10:53;101409.72;;;20.39;91.60
18900;BME280;9582;52.018;6.306;2022-08-20T03:13:20;101409.97;;;20.36;92.41
18900;BME280;9582;52.018;6.306;2022-08-20T03:15:49;101415.41;;;20.34;92.79
18900;BME280;9582;52.018;6.306;2022-08-20T03:18:18;101398.38;;;20.37;92.06
18900;BME280;9582;52.018;6.306;2022-08-20T03:20:45;101404.03;;;20.32;92.23
18900;BME280;9582;52.018;6.306;2022-08-20T03:23:14;101397.28;;;20.28;92.33
18900;BME280;9582;52.018;6.306;2022-08-20T03:25:41;101402.25;;;20.09;93.09
18900;BME280;9582;52.018;6.306;2022-08-20T03:28:08;101391.41;;;20.12;93.32
18900;BME280;9582;52.018;6.306;2022-08-20T03:30:36;101394.50;;;20.06;93.14
18900;BME280;9582;52.018;6.306;2022-08-20T03:33:02;101397.31;;;20.15;93.35
18900;BME280;9582;52.018;6.306;2022-08-20T03:35:30;101399.84;;;20.17;92.67
18900;BME280;9582;52.018;6.306;2022-08-20T03:37:57;101397.44;;;20.14;92.20
18900;BME280;9582;52.018;6.306;2022-08-20T03:40:28;101393.75;;;20.04;92.35
18900;BME280;9582;52.018;6.306;2022-08-20T03:42:55;101405.59;;;20.00;92.79
18900;BME280;9582;52.018;6.306;2022-08-20T03:45:24;101409.63;;;19.93;93.05
18900;BME280;9582;52.018;6.306;2022-08-20T03:47:53;101409.50;;;19.83;93.32
18900;BME280;9582;52.018;6.306;2022-08-20T03:50:22;101410.00;;;19.88;94.09
18900;BME280;9582;52.018;6.306;2022-08-20T03:52:50;101398.75;;;19.85;92.84
18900;BME280;9582;52.018;6.306;2022-08-20T03:55:17;101393.06;;;19.78;92.19
18900;BME280;9582;52.018;6.306;2022-08-20T03:57:45;101401.75;;;19.80;92.18
18900;BME280;9582;52.018;6.306;2022-08-20T04:00:16;101407.16;;;19.79;93.14
18900;BME280;9582;52.018;6.306;2022-08-20T04:02:44;101417.72;;;19.68;94.21
18900;BME280;9582;52.018;6.306;2022-08-20T04:05:11;101424.28;;;19.75;94.00
18900;BME280;9582;52.018;6.306;2022-08-20T04:07:39;101426.38;;;19.58;93.80
18900;BME280;9582;52.018;6.306;2022-08-20T04:10:08;101423.31;;;19.52;95.28
18900;BME280;9582;52.018;6.306;2022-08-20T04:12:35;101428.88;;;19.73;94.13
18900;BME280;9582;52.018;6.306;2022-08-20T04:15:08;101428.56;;;19.65;94.74
18900;BME280;9582;52.018;6.306;2022-08-20T04:17:36;101428.13;;;19.71;95.16
18900;BME280;9582;52.018;6.306;2022-08-20T04:20:03;101427.78;;;19.75;94.78
18900;BME280;9582;52.018;6.306;2022-08-20T04:22:30;101426.22;;;19.73;94.34
18900;BME280;9582;52.018;6.306;2022-08-20T04:24:56;101431.28;;;19.76;94.78
18900;BME280;9582;52.018;6.306;2022-08-20T04:27:23;101432.53;;;19.83;95.64
18900;BME280;9582;52.018;6.306;2022-08-20T04:29:49;101424.50;;;19.72;95.83
18900;BME280;9582;52.018;6.306;2022-08-20T04:32:17;101431.91;;;19.79;95.30
18900;BME280;9582;52.018;6.306;2022-08-20T04:34:45;101429.59;;;19.75;94.79
18900;BME280;9582;52.018;6.306;2022-08-20T04:37:11;101431.75;;;19.70;94.66
18900;BME280;9582;52.018;6.306;2022-08-20T04:39:38;101433.63;;;19.68;94.93
18900;BME280;9582;52.018;6.306;2022-08-20T04:42:05;101433.63;;;19.68;94.56
18900;BME280;9582;52.018;6.306;2022-08-20T04:44:30;101446.84;;;19.56;94.42
18900;BME280;9582;52.018;6.306;2022-08-20T04:46:57;101437.09;;;19.57;94.91
18900;BME280;9582;52.018;6.306;2022-08-20T04:49:24;101440.00;;;19.41;95.26
18900;BME280;9582;52.018;6.306;2022-08-20T04:51:52;101441.16;;;19.50;96.09
18900;BME280;9582;52.018;6.306;2022-08-20T04:54:19;101441.38;;;19.71;95.16
18900;BME280;9582;52.018;6.306;2022-08-20T04:56:46;101448.31;;;19.61;94.91
18900;BME280;9582;52.018;6.306;2022-08-20T04:59:12;101455.09;;;19.65;95.29
18900;BME280;9582;52.018;6.306;2022-08-20T05:01:39;101464.25;;;19.84;94.30
18900;BME280;9582;52.018;6.306;2022-08-20T05:04:05;101461.53;;;19.73;94.75
18900;BME280;9582;52.018;6.306;2022-08-20T05:06:33;101461.84;;;19.81;94.75
18900;BME280;9582;52.018;6.306;2022-08-20T05:09:00;101455.91;;;19.78;95.54
18900;BME280;9582;52.018;6.306;2022-08-20T05:11:27;101457.81;;;19.76;96.34
18900;BME280;9582;52.018;6.306;2022-08-20T05:13:54;101466.31;;;19.81;96.75
18900;BME280;9582;52.018;6.306;2022-08-20T05:16:20;101460.78;;;19.84;96.14
18900;BME280;9582;52.018;6.306;2022-08-20T05:18:48;101461.22;;;19.78;96.35
18900;BME280;9582;52.018;6.306;2022-08-20T05:21:16;101463.31;;;19.85;96.55
18900;BME280;9582;52.018;6.306;2022-08-20T05:23:45;101462.84;;;19.91;96.29
18900;BME280;9582;52.018;6.306;2022-08-20T05:26:12;101466.47;;;19.90;96.34
18900;BME280;9582;52.018;6.306;2022-08-20T05:28:40;101466.00;;;19.96;96.34
18900;BME280;9582;52.018;6.306;2022-08-20T05:31:06;101469.00;;;20.15;95.84
18900;BME280;9582;52.018;6.306;2022-08-20T05:33:35;101474.09;;;20.18;95.40
18900;BME280;9582;52.018;6.306;2022-08-20T05:36:03;101479.75;;;20.14;95.39
18900;BME280;9582;52.018;6.306;2022-08-20T05:38:31;101474.22;;;20.17;95.60
18900;BME280;9582;52.018;6.306;2022-08-20T05:41:00;101483.72;;;20.32;94.93
18900;BME280;9582;52.018;6.306;2022-08-20T05:43:27;101488.72;;;20.48;94.67
18900;BME280;9582;52.018;6.306;2022-08-20T05:45:56;101487.84;;;20.36;94.38
18900;BME280;9582;52.018;6.306;2022-08-20T05:48:23;101483.88;;;20.42;95.00
18900;BME280;9582;52.018;6.306;2022-08-20T05:50:52;101480.63;;;20.49;95.31
18900;BME280;9582;52.018;6.306;2022-08-20T05:53:20;101490.31;;;20.50;95.81
18900;BME280;9582;52.018;6.306;2022-08-20T05:55:47;101484.16;;;20.61;95.60
18900;BME280;9582;52.018;6.306;2022-08-20T05:58:17;101482.59;;;20.58;95.94
18900;BME280;9582;52.018;6.306;2022-08-20T06:00:45;101483.09;;;20.63;95.35
18900;BME280;9582;52.018;6.306;2022-08-20T06:03:12;101490.59;;;20.69;95.30
18900;BME280;9582;52.018;6.306;2022-08-20T06:05:56;101492.41;;;20.69;95.63
18900;BME280;9582;52.018;6.306;2022-08-20T06:08:23;101491.59;;;20.68;96.06
18900;BME280;9582;52.018;6.306;2022-08-20T06:10:50;101501.25;;;20.81;95.28
18900;BME280;9582;52.018;6.306;2022-08-20T06:13:17;101495.34;;;20.77;94.81
18900;BME280;9582;52.018;6.306;2022-08-20T06:15:44;101500.03;;;20.73;95.07
18900;BME280;9582;52.018;6.306;2022-08-20T06:18:11;101512.84;;;20.68;95.40
18900;BME280;9582;52.018;6.306;2022-08-20T06:20:37;101506.28;;;20.61;95.62
18900;BME280;9582;52.018;6.306;2022-08-20T06:23:05;101509.78;;;20.62;96.50
18900;BME280;9582;52.018;6.306;2022-08-20T06:25:33;101512.84;;;20.68;96.54
18900;BME280;9582;52.018;6.306;2022-08-20T06:28:00;101512.06;;;20.55;97.20
18900;BME280;9582;52.018;6.306;2022-08-20T06:30:29;101517.13;;;20.58;98.94
18900;BME280;9582;52.018;6.306;2022-08-20T06:32:55;101512.88;;;20.80;98.79
18900;BME280;9582;52.018;6.306;2022-08-20T06:35:22;101518.84;;;20.59;99.30
18900;BME280;9582;52.018;6.306;2022-08-20T06:37:48;101523.94;;;20.62;97.86
18900;BME280;9582;52.018;6.306;2022-08-20T06:40:20;101519.56;;;20.61;98.54
18900;BME280;9582;52.018;6.306;2022-08-20T06:42:47;101518.88;;;20.70;97.90
18900;BME280;9582;52.018;6.306;2022-08-20T06:45:16;101510.19;;;20.68;96.17
18900;BME280;9582;52.018;6.306;2022-08-20T06:47:45;101505.38;;;20.85;95.98
18900;BME280;9582;52.018;6.306;2022-08-20T06:50:14;101503.13;;;20.56;96.35
18900;BME280;9582;52.018;6.306;2022-08-20T06:52:42;101506.63;;;20.57;94.60
18900;BME280;9582;52.018;6.306;2022-08-20T06:55:10;101502.41;;;20.54;92.42
18900;BME280;9582;52.018;6.306;2022-08-20T06:57:37;101501.41;;;21.01;91.57
18900;BME280;9582;52.018;6.306;2022-08-20T07:00:06;101502.03;;;21.05;91.09
18900;BME280;9582;52.018;6.306;2022-08-20T07:02:33;101507.03;;;21.20;92.11
18900;BME280;9582;52.018;6.306;2022-08-20T07:05:03;101506.31;;;21.52;89.55
18900;BME280;9582;52.018;6.306;2022-08-20T07:07:30;101493.44;;;21.68;88.25
18900;BME280;9582;52.018;6.306;2022-08-20T07:10:00;101500.63;;;21.23;86.71
18900;BME280;9582;52.018;6.306;2022-08-20T07:12:27;101501.72;;;21.20;85.97
18900;BME280;9582;52.018;6.306;2022-08-20T07:14:53;101513.84;;;20.90;86.60
18900;BME280;9582;52.018;6.306;2022-08-20T07:17:20;101510.44;;;20.77;86.26
18900;BME280;9582;52.018;6.306;2022-08-20T07:19:46;101518.63;;;20.62;87.16
18900;BME280;9582;52.018;6.306;2022-08-20T07:22:14;101514.47;;;20.93;86.52
18900;BME280;9582;52.018;6.306;2022-08-20T07:24:40;101510.72;;;20.96;84.55
18900;BME280;9582;52.018;6.306;2022-08-20T07:27:07;101510.81;;;20.83;84.80
18900;BME280;9582;52.018;6.306;2022-08-20T07:29:33;101515.75;;;20.77;86.11
18900;BME280;9582;52.018;6.306;2022-08-20T07:32:14;101514.31;;;20.84;86.74
18900;BME280;9582;52.018;6.306;2022-08-20T07:35:03;101519.13;;;20.79;86.91
18900;BME280;9582;52.018;6.306;2022-08-20T07:37:36;101514.53;;;20.81;86.46
18900;BME280;9582;52.018;6.306;2022-08-20T07:40:05;101516.94;;;20.72;87.00
18900;BME280;9582;52.018;6.306;2022-08-20T07:42:31;101512.72;;;20.70;87.43
18900;BME280;9582;52.018;6.306;2022-08-20T07:44:58;101515.13;;;20.73;84.37
18900;BME280;9582;52.018;6.306;2022-08-20T07:47:24;101504.84;;;20.57;82.47
18900;BME280;9582;52.018;6.306;2022-08-20T07:49:51;101509.06;;;20.60;81.35
18900;BME280;9582;52.018;6.306;2022-08-20T07:52:17;101507.28;;;20.71;78.84
18900;BME280;9582;52.018;6.306;2022-08-20T07:54:45;101513.00;;;20.89;80.18
18900;BME280;9582;52.018;6.306;2022-08-20T07:57:12;101507.41;;;21.16;78.66
18900;BME280;9582;52.018;6.306;2022-08-20T07:59:39;101515.38;;;21.27;76.68
18900;BME280;9582;52.018;6.306;2022-08-20T08:02:05;101516.34;;;21.15;76.96
18900;BME280;9582;52.018;6.306;2022-08-20T08:04:31;101511.25;;;21.12;76.08
18900;BME280;9582;52.018;6.306;2022-08-20T08:06:59;101512.34;;;21.32;76.55
18900;BME280;9582;52.018;6.306;2022-08-20T08:09:26;101528.69;;;21.38;77.12
18900;BME280;9582;52.018;6.306;2022-08-20T08:11:56;101520.84;;;21.59;77.16
18900;BME280;9582;52.018;6.306;2022-08-20T08:14:26;101526.50;;;21.65;74.02
18900;BME280;9582;52.018;6.306;2022-08-20T08:16:57;101525.03;;;21.83;76.01
18900;BME280;9582;52.018;6.306;2022-08-20T08:19:25;101520.63;;;22.48;72.44
18900;BME280;9582;52.018;6.306;2022-08-20T08:21:54;101517.16;;;22.36;67.46
18900;BME280;9582;52.018;6.306;2022-08-20T08:24:21;101526.38;;;22.32;69.80
18900;BME280;9582;52.018;6.306;2022-08-20T08:26:47;101528.81;;;22.35;70.31
18900;BME280;9582;52.018;6.306;2022-08-20T08:29:15;101517.59;;;22.52;70.06
18900;BME280;9582;52.018;6.306;2022-08-20T08:31:42;101521.38;;;22.70;69.08
18900;BME280;9582;52.018;6.306;2022-08-20T08:34:08;101526.09;;;22.46;68.91
18900;BME280;9582;52.018;6.306;2022-08-20T08:36:36;101525.88;;;22.70;70.58
18900;BME280;9582;52.018;6.306;2022-08-20T08:39:03;101525.53;;;22.63;72.40
18900;BME280;9582;52.018;6.306;2022-08-20T08:41:33;101529.63;;;22.67;70.81
18900;BME280;9582;52.018;6.306;2022-08-20T08:44:04;101526.25;;;23.07;69.77
18900;BME280;9582;52.018;6.306;2022-08-20T08:46:37;101534.50;;;23.04;69.35
18900;BME280;9582;52.018;6.306;2022-08-20T08:49:05;101533.28;;;22.87;69.28
18900;BME280;9582;52.018;6.306;2022-08-20T08:51:47;101540.66;;;22.94;65.15
18900;BME280;9582;52.018;6.306;2022-08-20T08:54:17;101533.38;;;22.96;66.94
18900;BME280;9582;52.018;6.306;2022-08-20T08:56:45;101530.75;;;22.85;67.98
18900;BME280;9582;52.018;6.306;2022-08-20T08:59:11;101531.03;;;22.82;64.54
18900;BME280;9582;52.018;6.306;2022-08-20T09:01:42;101541.44;;;22.85;64.42
18900;BME280;9582;52.018;6.306;2022-08-20T09:04:10;101548.44;;;23.28;65.30
18900;BME280;9582;52.018;6.306;2022-08-20T09:06:37;101536.22;;;23.35;60.42
18900;BME280;9582;52.018;6.306;2022-08-20T09:09:06;101539.63;;;23.37;61.43
18900;BME280;9582;52.018;6.306;2022-08-20T09:11:45;101534.28;;;23.37;59.60
18900;BME280;9582;52.018;6.306;2022-08-20T09:14:11;101546.72;;;23.47;58.73
18900;BME280;9582;52.018;6.306;2022-08-20T09:16:39;101544.22;;;23.55;58.58
18900;BME280;9582;52.018;6.306;2022-08-20T09:19:05;101545.25;;;23.74;60.94
18900;BME280;9582;52.018;6.306;2022-08-20T09:21:32;101549.56;;;24.05;60.91
18900;BME280;9582;52.018;6.306;2022-08-20T09:23:58;101554.72;;;24.27;60.86
18900;BME280;9582;52.018;6.306;2022-08-20T09:26:25;101553.03;;;24.26;60.03
18900;BME280;9582;52.018;6.306;2022-08-20T09:28:51;101550.25;;;24.47;60.65
18900;BME280;9582;52.018;6.306;2022-08-20T09:31:18;101551.91;;;24.29;60.99
18900;BME280;9582;52.018;6.306;2022-08-20T09:33:45;101546.84;;;24.64;60.25
18900;BME280;9582;52.018;6.306;2022-08-20T09:36:12;101548.41;;;24.57;58.75
18900;BME280;9582;52.018;6.306;2022-08-20T09:38:38;101556.97;;;24.51;57.94
18900;BME280;9582;52.018;6.306;2022-08-20T09:41:05;101549.78;;;24.42;56.71
18900;BME280;9582;52.018;6.306;2022-08-20T09:43:31;101551.06;;;24.57;56.59
18900;BME280;9582;52.018;6.306;2022-08-20T09:45:58;101546.28;;;24.60;56.68
18900;BME280;9582;52.018;6.306;2022-08-20T09:48:24;101546.13;;;24.43;58.83
18900;BME280;9582;52.018;6.306;2022-08-20T09:50:52;101541.75;;;24.42;58.93
18900;BME280;9582;52.018;6.306;2022-08-20T09:53:20;101545.28;;;24.42;60.16
18900;BME280;9582;52.018;6.306;2022-08-20T09:55:50;101546.84;;;24.26;60.42
18900;BME280;9582;52.018;6.306;2022-08-20T09:58:20;101537.56;;;24.68;58.30
18900;BME280;9582;52.018;6.306;2022-08-20T10:00:47;101543.75;;;24.59;57.29
18900;BME280;9582;52.018;6.306;2022-08-20T10:03:14;101542.59;;;24.61;56.97
18900;BME280;9582;52.018;6.306;2022-08-20T10:05:41;101543.19;;;24.46;56.70
18900;BME280;9582;52.018;6.306;2022-08-20T10:08:10;101544.03;;;24.56;56.61
18900;BME280;9582;52.018;6.306;2022-08-20T10:10:37;101542.06;;;24.67;56.04
18900;BME280;9582;52.018;6.306;2022-08-20T10:13:04;101545.69;;;24.76;54.32
18900;BME280;9582;52.018;6.306;2022-08-20T10:15:30;101544.44;;;24.70;56.41
18900;BME280;9582;52.018;6.306;2022-08-20T10:17:57;101544.31;;;24.72;53.53
18900;BME280;9582;52.018;6.306;2022-08-20T10:20:24;101538.13;;;24.43;52.15
18900;BME280;9582;52.018;6.306;2022-08-20T10:22:50;101544.72;;;24.29;52.34
18900;BME280;9582;52.018;6.306;2022-08-20T10:25:19;101555.13;;;24.42;53.34
18900;BME280;9582;52.018;6.306;2022-08-20T10:27:45;101549.91;;;24.31;56.26
18900;BME280;9582;52.018;6.306;2022-08-20T10:30:12;101547.28;;;23.91;55.57
18900;BME280;9582;52.018;6.306;2022-08-20T10:32:38;101546.06;;;24.04;55.87
18900;BME280;9582;52.018;6.306;2022-08-20T10:35:05;101542.03;;;24.39;54.38
18900;BME280;9582;52.018;6.306;2022-08-20T10:37:32;101545.69;;;24.76;53.65
18900;BME280;9582;52.018;6.306;2022-08-20T10:39:59;101543.47;;;24.81;55.41
18900;BME280;9582;52.018;6.306;2022-08-20T10:42:27;101543.41;;;25.19;52.19
18900;BME280;9582;52.018;6.306;2022-08-20T10:44:53;101547.34;;;25.15;50.94
18900;BME280;9582;52.018;6.306;2022-08-20T10:47:22;101548.75;;;25.19;52.40
18900;BME280;9582;52.018;6.306;2022-08-20T10:49:50;101542.06;;;24.96;52.85
18900;BME280;9582;52.018;6.306;2022-08-20T10:52:18;101549.22;;;24.29;54.70
18900;BME280;9582;52.018;6.306;2022-08-20T10:54:45;101543.38;;;23.95;55.34
18900;BME280;9582;52.018;6.306;2022-08-20T10:57:13;101553.59;;;24.58;54.17
18900;BME280;9582;52.018;6.306;2022-08-20T10:59:43;101543.63;;;24.60;52.18
18900;BME280;9582;52.018;6.306;2022-08-20T11:02:10;101541.34;;;24.94;51.13
18900;BME280;9582;52.018;6.306;2022-08-20T11:04:37;101554.81;;;25.21;52.99
18900;BME280;9582;52.018;6.306;2022-08-20T11:07:12;101551.19;;;25.59;49.71
18900;BME280;9582;52.018;6.306;2022-08-20T11:09:40;101549.91;;;25.91;49.48
18900;BME280;9582;52.018;6.306;2022-08-20T11:12:07;101545.34;;;25.73;50.23
18900;BME280;9582;52.018;6.306;2022-08-20T11:14:34;101546.16;;;26.01;50.21
18900;BME280;9582;52.018;6.306;2022-08-20T11:17:02;101557.00;;;25.82;48.71
18900;BME280;9582;52.018;6.306;2022-08-20T11:19:29;101551.72;;;26.17;47.65
18900;BME280;9582;52.018;6.306;2022-08-20T11:21:55;101552.34;;;26.29;46.62
18900;BME280;9582;52.018;6.306;2022-08-20T11:24:22;101553.78;;;25.78;48.13
18900;BME280;9582;52.018;6.306;2022-08-20T11:26:49;101559.63;;;25.64;48.85
18900;BME280;9582;52.018;6.306;2022-08-20T11:29:17;101562.13;;;25.66;48.74
18900;BME280;9582;52.018;6.306;2022-08-20T11:31:44;101556.94;;;25.92;47.70
18900;BME280;9582;52.018;6.306;2022-08-20T11:34:12;101553.50;;;25.72;49.20
18900;BME280;9582;52.018;6.306;2022-08-20T11:36:39;101560.63;;;25.91;51.30
18900;BME280;9582;52.018;6.306;2022-08-20T11:39:06;101554.81;;;25.68;49.16
18900;BME280;9582;52.018;6.306;2022-08-20T11:41:32;101553.41;;;25.64;48.78
18900;BME280;9582;52.018;6.306;2022-08-20T11:43:58;101559.69;;;25.36;46.83
18900;BME280;9582;52.018;6.306;2022-08-20T11:46:25;101549.81;;;25.46;46.60
18900;BME280;9582;52.018;6.306;2022-08-20T11:48:51;101558.78;;;25.17;47.59
18900;BME280;9582;52.018;6.306;2022-08-20T11:51:19;101555.31;;;24.88;48.75
18900;BME280;9582;52.018;6.306;2022-08-20T11:53:46;101565.56;;;24.93;48.57
18900;BME280;9582;52.018;6.306;2022-08-20T11:56:12;101553.19;;;24.92;48.49
18900;BME280;9582;52.018;6.306;2022-08-20T11:58:43;101553.31;;;24.90;47.86
18900;BME280;9582;52.018;6.306;2022-08-20T12:01:10;101550.41;;;24.84;47.50
18900;BME280;9582;52.018;6.306;2022-08-20T12:03:36;101554.56;;;24.96;47.63
18900;BME280;9582;52.018;6.306;2022-08-20T12:06:03;101540.19;;;25.06;47.84
18900;BME280;9582;52.018;6.306;2022-08-20T12:08:31;101554.16;;;25.83;45.44
18900;BME280;9582;52.018;6.306;2022-08-20T12:11:00;101535.44;;;26.01;45.86
18900;BME280;9582;52.018;6.306;2022-08-20T12:13:28;101539.38;;;26.77;43.90
18900;BME280;9582;52.018;6.306;2022-08-20T12:15:56;101548.06;;;26.54;44.39
18900;BME280;9582;52.018;6.306;2022-08-20T12:18:22;101551.44;;;26.38;43.30
18900;BME280;9582;52.018;6.306;2022-08-20T12:20:49;101550.63;;;26.10;43.05
18900;BME280;9582;52.018;6.306;2022-08-20T12:23:15;101545.94;;;26.12;44.20
18900;BME280;9582;52.018;6.306;2022-08-20T12:25:43;101549.44;;;26.22;43.65
18900;BME280;9582;52.018;6.306;2022-08-20T12:28:11;101546.22;;;25.92;42.70
18900;BME280;9582;52.018;6.306;2022-08-20T12:30:38;101543.69;;;25.63;42.98
18900;BME280;9582;52.018;6.306;2022-08-20T12:33:04;101546.06;;;25.66;43.52
18900;BME280;9582;52.018;6.306;2022-08-20T12:35:31;101546.25;;;26.09;44.11
18900;BME280;9582;52.018;6.306;2022-08-20T12:38:01;101544.41;;;25.65;43.35
18900;BME280;9582;52.018;6.306;2022-08-20T12:40:28;101544.72;;;25.52;44.34
18900;BME280;9582;52.018;6.306;2022-08-20T12:42:56;101540.50;;;25.50;43.23
18900;BME280;9582;52.018;6.306;2022-08-20T12:45:22;101550.59;;;25.93;42.75
18900;BME280;9582;52.018;6.306;2022-08-20T12:47:49;101540.03;;;26.18;41.97
18900;BME280;9582;52.018;6.306;2022-08-20T12:50:17;101543.00;;;26.51;41.56
18900;BME280;9582;52.018;6.306;2022-08-20T12:52:44;101545.44;;;26.62;40.31
18900;BME280;9582;52.018;6.306;2022-08-20T12:55:12;101547.84;;;26.82;41.71
18900;BME280;9582;52.018;6.306;2022-08-20T12:57:41;101544.31;;;26.47;41.42
18900;BME280;9582;52.018;6.306;2022-08-20T13:00:12;101535.41;;;26.46;41.41
18900;BME280;9582;52.018;6.306;2022-08-20T13:02:39;101536.72;;;26.42;41.24